Flight Track Log - Related Links

Times and Time Zones

All times are in EDT time to prevent confusion due to time zone crossing. See the DAL1977 flight status page for this flight to view local times or setup timezone preferences in your user account.

Time Position Orientation Groundspeed Altitude Reporting Facility
EDT Latitude Longitude Course Direction KTS MPH feet Rate Location/Type
Fri 07:31:03 PM 41.9739 -87.8642 137° Southeast 169 194 2,100  Level Chicago Center
Fri 07:32:03 PM 41.9294 -87.8092 161° South 237 273 4,100 1,400 Climbing Chicago Center
Fri 07:33:03 PM 41.8622 -87.7775 181° South 270 311 4,900 450 Climbing Chicago Center
Fri 07:34:03 PM 41.7936 -87.7792 189° South 270 311 5,000 1,400 Climbing Chicago Center
Fri 07:35:03 PM 41.7189 -87.7950 191° South 270 311 7,700 2,700 Climbing Chicago Center
Fri 07:36:03 PM 41.6397 -87.8161 191° South 275 316 10,400 2,550 Climbing Chicago Center
Fri 07:37:03 PM 41.5567 -87.8375 192° South 299 344 12,800 1,800 Climbing Chicago Center
Fri 07:38:03 PM 41.4611 -87.8647 188° South 320 368 14,000 1,850 Climbing Chicago Center
Fri 07:39:03 PM 41.3531 -87.8839 183° South 363 418 16,500 1,900 Climbing Chicago Center
Fri 07:40:03 PM 41.2406 -87.8919 179° South 390 449 17,800 1,550 Climbing Chicago Center
Fri 07:41:03 PM 41.1239 -87.8889 179° South 411 473 19,600 1,650 Climbing Chicago Center
Fri 07:42:03 PM 41.0050 -87.8861 179° South 423 487 21,100 1,450 Climbing Chicago Center
Fri 07:43:03 PM 40.8819 -87.8833 179° South 434 499 22,500 1,350 Climbing Chicago Center
Fri 07:44:03 PM 40.7547 -87.8808 178° South 444 511 23,800 1,200 Climbing Chicago Center
Fri 07:46:03 PM 40.4961 -87.8675 180° South 463 533 26,100 1,313 Climbing Chicago Center
Fri 07:47:47 PM 40.2706 -87.8667 177° South 488 562 28,700 1,354 Climbing Indianapolis Center
Fri 07:48:47 PM 40.1458 -87.8589 178° South 471 542 29,800 1,150 Climbing Indianapolis Center
Fri 07:49:47 PM 40.0167 -87.8536 176° South 459 528 31,000 600 Climbing Indianapolis Center
Fri 07:50:47 PM 39.8919 -87.8433 178° South 459 528 31,000  Level Indianapolis Center
Fri 07:52:47 PM 39.6381 -87.8306 167° South 457 526 31,000  Level Indianapolis Center
Fri 07:53:47 PM 39.5186 -87.7939 165° South 457 526 31,000  Level Indianapolis Center
Fri 07:54:47 PM 39.3886 -87.7483 165° South 472 543 31,000  Level Indianapolis Center
Fri 07:55:47 PM 39.2733 -87.7094 166° South 461 531 31,000  Level Indianapolis Center
Fri 07:56:47 PM 39.1456 -87.6672 165° South 467 537 31,000  Level Indianapolis Center
Fri 07:57:47 PM 39.0217 -87.6253 165° South 467 537 31,000  Level Indianapolis Center
Fri 07:58:47 PM 38.8981 -87.5836 165° South 467 537 31,000  Level Indianapolis Center
Fri 07:59:47 PM 38.7764 -87.5422 165° South 467 537 31,000  Level Indianapolis Center
Fri 08:00:47 PM 38.6528 -87.5008 165° South 467 537 31,000  Level Indianapolis Center
Fri 08:01:47 PM 38.5308 -87.4597 165° South 467 537 31,000  Level Indianapolis Center
Fri 08:02:47 PM 38.4092 -87.4186 167° South 462 532 31,000  Level Indianapolis Center
Fri 08:03:47 PM 38.2833 -87.3803 165° South 462 532 31,000  Level Indianapolis Center
Fri 08:04:47 PM 38.1594 -87.3369 166° South 462 532 31,000  Level Indianapolis Center
Fri 08:05:47 PM 38.0336 -87.2961 165° South 468 539 31,000  Level Indianapolis Center
Fri 08:06:47 PM 37.9139 -87.2558 165° South 463 533 31,000  Level Indianapolis Center
Fri 08:07:47 PM 37.7919 -87.2156 165° South 463 533 31,000  Level Indianapolis Center
Fri 08:09:55 PM 37.5336 -87.1272 167° South 459 528 31,000  Level Memphis Center
Fri 08:10:55 PM 37.4139 -87.0931 165° South 453 521 31,000  Level Memphis Center
Fri 08:11:55 PM 37.2919 -87.0511 165° South 453 521 31,000  Level Memphis Center
Fri 08:12:55 PM 37.1700 -87.0094 166° South 453 521 31,000  Level Memphis Center
Fri 08:13:55 PM 37.0461 -86.9703 157° South 453 521 31,000  Level Memphis Center
Fri 08:14:55 PM 36.9297 -86.9078 155° Southeast 453 521 31,000  Level Memphis Center
Fri 08:15:55 PM 36.8258 -86.8475 154° Southeast 459 528 31,000  Level Memphis Center
Fri 08:16:55 PM 36.7092 -86.7775 154° Southeast 464 534 31,000  Level Memphis Center
Fri 08:17:55 PM 36.5925 -86.7053 155° Southeast 471 542 31,000  Level Memphis Center
Fri 08:18:55 PM 36.4633 -86.6311 154° Southeast 471 542 31,000  Level Memphis Center
Fri 08:19:55 PM 36.3464 -86.5617 154° Southeast 471 542 31,000  Level Memphis Center
Fri 08:20:55 PM 36.2297 -86.4925 155° Southeast 471 542 31,000  Level Memphis Center
Fri 08:21:55 PM 36.1150 -86.4261 155° Southeast 466 536 31,000  Level Memphis Center
Fri 08:22:55 PM 35.9983 -86.3597 155° Southeast 466 536 31,000  Level Memphis Center
Fri 08:24:40 PM 35.7986 -86.2431 155° Southeast 454 522 31,000  Level Atlanta Center
Fri 08:25:40 PM 35.6808 -86.1761 155° Southeast 459 528 31,000  Level Atlanta Center
Fri 08:26:40 PM 35.5778 -86.1172 155° Southeast 459 528 31,000  Level Atlanta Center
Fri 08:27:40 PM 35.4494 -86.0425 155° Southeast 459 528 31,000 -50 Level Atlanta Center
Fri 08:28:40 PM 35.3483 -85.9842 155° Southeast 454 522 30,900 -500 Descending Atlanta Center
Fri 08:29:40 PM 35.2325 -85.9178 156° South 459 528 30,000 -950 Descending Atlanta Center
Fri 08:30:40 PM 35.1144 -85.8542 150° Southeast 459 528 29,000 -850 Descending Atlanta Center
Fri 08:31:40 PM 35.0008 -85.7756 146° Southeast 459 528 28,300 -750 Descending Atlanta Center
Fri 08:32:40 PM 34.8936 -85.6872 147° Southeast 464 534 27,500 -1,100 Descending Atlanta Center
Fri 08:33:40 PM 34.7861 -85.6017 148° Southeast 464 534 26,100 -1,350 Descending Atlanta Center
Fri 08:34:40 PM 34.6725 -85.5139 147° Southeast 476 548 24,800 -1,150 Descending Atlanta Center
Fri 08:35:40 PM 34.5628 -85.4286 147° Southeast 476 548 23,800 -1,450 Descending Atlanta Center
Fri 08:36:40 PM 34.4531 -85.3411 148° Southeast 476 548 21,900 -2,500 Descending Atlanta Center
Fri 08:37:40 PM 34.3414 -85.2564 148° Southeast 454 522 18,800 -2,850 Descending Atlanta Center
Fri 08:38:40 PM 34.2378 -85.1794 143° Southeast 448 516 16,200 -2,300 Descending Atlanta Center
Fri 08:39:40 PM 34.1528 -85.1031 134° Southeast 430 495 14,200 -1,100 Descending Atlanta Center
Fri 08:40:40 PM 34.0703 -84.9992 133° Southeast 425 489 14,000 -550 Descending Atlanta Center
Fri 08:41:40 PM 33.9917 -84.8981 134° Southeast 413 475 13,100 -950 Descending Atlanta Center
Fri 08:42:40 PM 33.9131 -84.7997 134° Southeast 413 475 12,100 -550 Descending Atlanta Center
Fri 08:43:40 PM 33.8406 -84.7092 132° Southeast 390 449 12,000 -56 Descending Atlanta Center
Fri 08:44:28 PM 33.7833 -84.6333 132° Southeast 280 322 12,000  Level Atlanta TRACON
Fri 08:45:28 PM 33.7333 -84.5667 90° East 284 327 12,000 -800 Level Atlanta TRACON
Fri 08:46:28 PM 33.7333 -84.4833 90° East 270 311 10,400 -1,850 Descending Atlanta TRACON
Fri 08:47:28 PM 33.7333 -84.3833 90° East 273 314 8,300 -1,684 Descending Atlanta TRACON
Fri 08:48:22 PM 33.7333 -84.3167 90° East 245 282 7,200 -1,105 Descending Atlanta TRACON
Fri 08:49:22 PM 33.7333 -84.2500 90° East 224 258 6,200 -600 Descending Atlanta TRACON
Fri 08:50:22 PM 33.7333 -84.1667 151° Southeast 216 249 6,000 -526 Descending Atlanta TRACON
Fri 08:51:16 PM 33.6833 -84.1333 220° Southwest 212 244 5,200 -1,000 Descending Atlanta TRACON
Fri 08:52:16 PM 33.6500 -84.1667 270° West 184 212 4,100 -600 Descending Atlanta TRACON
Fri 08:53:16 PM 33.6500 -84.2167 270° West 181 208 4,000 -496 Descending Atlanta TRACON
Fri 08:54:17 PM 33.6500 -84.2833 270° West 173 199 3,100 -850 Descending Atlanta TRACON
Fri 08:55:23 PM 33.6500 -84.3333 270° West 146 168 2,200 -800 Descending Atlanta TRACON
Fri 08:56:17 PM 33.6500 -84.3833 270° West 140 161 1,500 -778 Descending Atlanta TRACON

Login

Don't have an account? Register now (free) for customized features, flight alerts, and more!